Time;durP1;ratioP1;P1;durP2;ratioP2;P2;SDS_P1;SDS_P2;PMS_P1;PMS_P2;Temp;Humidity;BMP_temperature;BMP_pressure;BME280_temperature;BME280_humidity;BME280_pressure;Samples;Min_cycle;Max_cycle;Signal;HPM_P1;HPM_P2
2021/01/07 00:11:20;;;;;;;83.67;33.30;;;;;;;1.58;100.00;99802.45;10257959;85;21059;-83
2021/01/07 00:26:24;;;;;;;96.92;39.27;;;;;;;1.52;100.00;99795.52;9877460;84;21170;-86
2021/01/07 00:41:27;;;;;;;102.82;43.42;;;;;;;1.54;100.00;99791.10;9846540;88;21050;-85
2021/01/07 00:56:36;;;;;;;75.25;30.92;;;;;;;1.52;100.00;99787.31;9929748;88;21526;-85
2021/01/07 01:11:42;;;;;;;76.25;30.52;;;;;;;1.54;100.00;99780.28;9926363;85;21075;-82
2021/01/07 01:26:46;;;;;;;90.12;33.20;;;;;;;1.54;100.00;99769.94;9986663;86;21171;-82
2021/01/07 01:41:50;;;;;;;106.30;41.23;;;;;;;1.54;100.00;99733.75;10009870;88;21077;-82
2021/01/07 01:56:58;;;;;;;61.48;29.10;;;;;;;1.53;100.00;99732.11;10009805;88;21081;-83
2021/01/07 02:12:02;;;;;;;65.40;26.07;;;;;;;1.59;100.00;99736.89;10203119;84;618443;-83
2021/01/07 02:27:09;;;;;;;62.30;25.50;;;;;;;1.55;100.00;99714.73;10376878;84;21536;-82
2021/01/07 02:57:21;;;;;;;69.67;28.27;;;;;;;1.45;100.00;99683.88;10585262;77;717976;-84
2021/01/07 03:12:25;;;;;;;60.08;26.80;;;;;;;1.58;100.00;99669.77;10370904;84;21153;-81
2021/01/07 03:27:30;;;;;;;76.20;29.12;;;;;;;1.57;100.00;99660.34;10370030;85;21558;-85
2021/01/07 03:42:35;;;;;;;56.25;21.73;;;;;;;1.42;100.00;99656.45;10370162;84;21133;-84
2021/01/07 03:57:39;;;;;;;65.65;24.57;;;;;;;1.22;100.00;99647.79;10372318;84;21149;-82
2021/01/07 04:12:44;;;;;;;60.03;26.85;;;;;;;1.49;100.00;99643.55;10365476;84;21344;-82
2021/01/07 04:27:48;;;;;;;71.33;28.47;;;;;;;1.41;100.00;99638.02;10359780;84;21179;-83
2021/01/07 04:42:53;;;;;;;64.65;26.48;;;;;;;1.52;100.00;99619.71;10363994;85;21229;-82
2021/01/07 04:57:57;;;;;;;86.70;36.60;;;;;;;1.52;100.00;99619.71;10366805;84;21129;-82
2021/01/07 05:13:08;;;;;;;70.87;31.42;;;;;;;1.47;100.00;99619.53;10363744;84;21121;-83
2021/01/07 05:28:13;;;;;;;57.13;25.65;;;;;;;1.27;100.00;99616.05;10357473;84;420087;-84
2021/01/07 05:43:18;;;;;;;67.53;27.77;;;;;;;1.32;100.00;99620.48;10366218;83;21177;-84
2021/01/07 05:58:24;;;;;;;60.40;28.05;;;;;;;1.24;100.00;99618.35;10285883;85;21123;-85
2021/01/07 06:13:29;;;;;;;55.67;26.63;;;;;;;1.19;100.00;99627.28;10292567;85;21331;-85
2021/01/07 06:28:37;;;;;;;53.23;23.32;;;;;;;1.15;100.00;99623.59;10275004;84;129286;-84
2021/01/07 06:43:43;;;;;;;65.42;27.15;;;;;;;1.16;100.00;99630.44;10310799;84;21149;-84
2021/01/07 06:58:51;;;;;;;99.77;44.60;;;;;;;1.14;100.00;99641.31;10317336;84;276164;-84
2021/01/07 07:13:59;;;;;;;90.00;37.58;;;;;;;1.12;100.00;99647.48;10390715;84;21600;-83
2021/01/07 07:29:11;;;;;;;71.22;32.42;;;;;;;1.10;100.00;99646.29;10055491;84;21148;-84
2021/01/07 07:44:16;;;;;;;133.90;52.85;;;;;;;1.03;100.00;99652.75;10440953;84;21238;-84
2021/01/07 07:59:22;;;;;;;141.77;54.65;;;;;;;1.07;100.00;99655.52;10575695;84;21230;-84
2021/01/07 08:14:28;;;;;;;160.23;61.97;;;;;;;0.97;100.00;99668.13;10575095;84;61234;-84
2021/01/07 08:29:37;;;;;;;176.57;69.83;;;;;;;0.79;100.00;99685.53;10356004;84;21510;-83
2021/01/07 08:44:42;;;;;;;241.55;81.57;;;;;;;0.77;100.00;99677.50;10044929;86;21241;-83
2021/01/07 08:59:47;;;;;;;128.83;48.57;;;;;;;0.73;100.00;99690.22;10130598;86;21171;-82
2021/01/07 09:14:57;;;;;;;116.40;46.48;;;;;;;0.74;100.00;99690.56;10136875;86;21251;-82
2021/01/07 09:30:01;;;;;;;231.57;96.35;;;;;;;0.81;100.00;99699.17;10241506;83;21095;-83
2021/01/07 09:45:09;;;;;;;103.70;40.92;;;;;;;0.74;100.00;99704.77;10579924;83;21238;-83
2021/01/07 10:00:16;;;;;;;155.22;63.70;;;;;;;0.92;100.00;99701.14;10579007;83;21689;-82
2021/01/07 10:15:21;;;;;;;;;;;;;;;1.09;100.00;99701.45;10616425;83;51594;-83
2021/01/07 10:30:26;;;;;;;74.87;32.13;;;;;;;1.19;100.00;99707.38;10177819;83;2205472;-83
2021/01/07 10:45:30;;;;;;;140.52;50.80;;;;;;;1.23;100.00;99704.98;10305786;84;21286;-82
2021/01/07 11:00:44;;;;;;;206.72;85.00;;;;;;;1.41;100.00;99696.63;10202622;86;21264;-83
2021/01/07 11:15:55;;;;;;;205.70;84.90;;;;;;;1.60;100.00;99689.44;10224061;85;21219;-83
2021/01/07 11:31:02;;;;;;;58.90;28.40;;;;;;;1.75;100.00;99681.20;10120780;85;10001239;-83
2021/01/07 11:46:12;;;;;;;52.63;27.20;;;;;;;1.78;100.00;99677.16;10213185;84;21163;-83
2021/01/07 12:01:17;;;;;;;65.72;29.35;;;;;;;2.07;100.00;99661.59;10236410;83;21028;-83
2021/01/07 12:16:29;;;;;;;131.47;51.42;;;;;;;2.31;100.00;99663.56;10138839;85;21552;-82
2021/01/07 12:31:35;;;;;;;63.25;27.05;;;;;;;2.13;100.00;99648.24;10089072;85;21609;-83
2021/01/07 12:46:46;;;;;;;558.17;226.05;;;;;;;1.85;100.00;99650.89;9390501;92;21217;-85
2021/01/07 13:02:00;;;;;;;105.05;58.92;;;;;;;1.72;100.00;99654.24;9389077;93;21572;-85
2021/01/07 13:17:05;;;;;;;80.83;42.27;;;;;;;1.94;100.00;99661.95;10125735;85;439366;-85
2021/01/07 13:32:11;;;;;;;112.65;51.45;;;;;;;1.48;100.00;99670.32;10238676;86;21289;-85
2021/01/07 13:47:18;;;;;;;110.57;48.83;;;;;;;1.48;100.00;99670.32;9664753;86;21540;-84
2021/01/07 14:02:23;;;;;;;79.97;35.20;;;;;;;1.02;100.00;99667.02;10119264;85;496361;-85
2021/01/07 14:17:29;;;;;;;131.43;48.77;;;;;;;1.20;100.00;99689.23;10283371;85;21708;-84
2021/01/07 14:32:36;;;;;;;130.15;44.13;;;;;;;1.33;100.00;99706.97;10264906;86;21209;-85
2021/01/07 14:47:40;;;;;;;101.37;35.70;;;;;;;1.20;100.00;99706.47;10228209;85;21072;-84
2021/01/07 15:02:55;;;;;;;108.22;42.80;;;;;;;1.09;100.00;99719.55;9620942;88;21231;-84
2021/01/07 15:18:05;;;;;;;150.55;58.92;;;;;;;0.98;100.00;99725.80;9923927;88;21222;-76
2021/01/07 15:33:11;;;;;;;89.03;41.23;;;;;;;0.99;100.00;99730.06;10050652;87;21219;-77
2021/01/07 15:48:47;;;;;;;80.30;33.08;;;;;;;1.05;100.00;99741.31;10084957;84;21160;-77
2021/01/07 16:03:54;;;;;;;80.83;32.83;;;;;;;1.05;100.00;99741.31;10235534;87;21246;-77
2021/01/07 16:19:01;;;;;;;76.07;35.25;;;;;;;0.99;100.00;99750.72;10238487;85;77782;-77
2021/01/07 16:34:08;;;;;;;90.92;38.33;;;;;;;1.16;100.00;99757.05;10403661;85;615455;-76
2021/01/07 16:49:12;;;;;;;70.42;34.13;;;;;;;1.20;100.00;99761.59;10488272;81;21224;-77
2021/01/07 17:04:16;;;;;;;80.85;32.65;;;;;;;1.13;100.00;99762.84;10545645;84;615950;-76
2021/01/07 17:19:21;;;;;;;88.95;37.85;;;;;;;1.08;100.00;99768.73;10294523;84;5534060;-76
2021/01/07 17:34:26;;;;;;;63.33;26.37;;;;;;;0.99;100.00;99767.52;10282730;86;21266;-77
2021/01/07 17:49:32;;;;;;;65.70;27.30;;;;;;;0.98;100.00;99773.59;10411327;84;22728;-77
2021/01/07 18:04:38;;;;;;;65.83;27.17;;;;;;;1.10;100.00;99779.82;10544494;84;21133;-77
2021/01/07 18:19:42;;;;;;;;;;;;;;;1.09;100.00;99781.55;10511396;84;21124;-77
2021/01/07 18:34:47;;;;;;;70.72;28.20;;;;;;;1.07;100.00;99784.70;10527288;84;20228;-77
2021/01/07 18:49:51;;;;;;;54.40;23.80;;;;;;;0.99;100.00;99789.47;10526302;84;312076;-76
2021/01/07 19:04:57;;;;;;;50.28;23.07;;;;;;;0.99;100.00;99792.05;10552077;84;21501;-76
2021/01/07 19:20:02;;;;;;;61.65;25.65;;;;;;;1.03;100.00;99786.23;10537432;84;21200;-77
2021/01/07 19:35:10;;;;;;;68.33;28.25;;;;;;;0.89;100.00;99799.47;10501758;84;21056;-76
2021/01/07 19:50:15;;;;;;;78.55;35.52;;;;;;;0.98;100.00;99802.01;10496282;84;21295;-77
2021/01/07 20:05:20;;;;;;;70.92;28.05;;;;;;;0.94;100.00;99793.59;10486930;83;21561;-78
2021/01/07 20:20:25;;;;;;;53.15;25.90;;;;;;;0.96;100.00;99810.28;10434741;84;21075;-78
2021/01/07 20:35:32;;;;;;;59.08;25.95;;;;;;;0.80;100.00;99814.18;10428367;84;21166;-77
2021/01/07 20:50:37;;;;;;;62.77;28.50;;;;;;;0.79;100.00;99819.81;10486613;83;21182;-77
2021/01/07 21:05:42;;;;;;;61.65;25.57;;;;;;;0.87;100.00;99819.40;10458061;84;21194;-77
2021/01/07 21:20:47;;;;;;;63.98;27.55;;;;;;;0.73;100.00;99814.98;10413762;84;21175;-79
2021/01/07 21:35:52;;;;;;;64.00;25.97;;;;;;;0.72;100.00;99814.59;10447439;83;21547;-77
2021/01/07 21:50:58;;;;;;;56.95;22.00;;;;;;;0.75;100.00;99822.20;10504019;84;21181;-77
2021/01/07 22:06:02;;;;;;;61.13;23.18;;;;;;;0.77;100.00;99836.31;10500979;84;21189;-78
2021/01/07 22:21:07;;;;;;;59.70;25.05;;;;;;;0.76;100.00;99845.78;10492717;84;615812;-77
2021/01/07 22:36:13;;;;;;;47.70;19.07;;;;;;;0.81;100.00;99852.83;10499656;85;21138;-77
2021/01/07 22:51:22;;;;;;;50.13;19.30;;;;;;;0.88;100.00;99853.33;10511779;84;21271;-78
2021/01/07 23:06:29;;;;;;;44.35;20.92;;;;;;;0.57;100.00;99854.14;10556634;84;21237;-77
2021/01/07 23:21:33;;;;;;;48.20;21.27;;;;;;;0.88;100.00;99851.22;10298130;84;22221;-78
2021/01/07 23:36:38;;;;;;;53.25;23.60;;;;;;;0.73;100.00;99844.67;10234215;86;21168;-77
2021/01/07 23:51:42;;;;;;;45.28;19.85;;;;;;;0.74;100.00;99854.09;10158799;86;21345;-77
